Hlavní strana
METAR-TAF:

METAR-TAF

Letiště :

Mezinárodní letiště Kuala Lumpur

Kuala Lumpur, Malajsie

zeměpisná šířka: 02-44N, zeměpisná délka: 101-42E, výška: 21 m

Aktuální stav počasí

Zpráva byla vytvořena před 22 minutami, v 23:00 UTC
Bezvětří
Teplota 25°C
Vlhkost vzduchu 94%
Tlak 1011 hPa
Viditelnost 10 km a více
Skoro jasno ve výšce 1700 ft, Cumulonimbus.
Polojasno ve výšce 14000 ft
Oblačno až skoro zataženo ve výšce 28000 ft

METAR: WMKK 132300Z 00000KT 9999 FEW017CB SCT140 BKN280 25/24 Q1011 NOSIG

Čas: 07:22 (23:22 UTC)

Předpověď počasí

Zpráva byla vytvořena před 6 hodinami a 22 minutami, v 17:00 UTC
Předpověď platná od 13 v 18 UTC do 15 v 00 UTC
Východní vítr 5 kt
Viditelnost 10 km a více
Skoro jasno ve výšce 1700 ft, Cumulonimbus.
Změna
od 14 v 02 UTC do 14 v 03 UTC
Jihojihovýchodní vítr 5 kt
Skoro jasno ve výšce 2000 ft

TAF: WMKK 131700Z 1318/1500 08005KT 9999 FEW017CB BECMG 1402/1403 16005KT FEW020

Stav a předpovědi počasí z více než 4 000 letišť (zprávy METAR a TAF).

Červené a žluté tečky na mapě představují dostupné meteorologické stanice.

Když kurzor umístíte na tečku, zobrazí se název stanice.

Pak kliknutím zobrazíte stav a předpověď počasí.

Chcete-li změnit mapu, kliknutím na zelené tlačítko se znaménkem +mapu přiblížíte, kliknutím na zelené tlačítko se znaménkem – mapu oddálíte a kliknutím na zelené šipky přejdete na sousední mapy.


METAR-TAF: